PWSweather.com
Personal Weather Stations
Station Observations
BMGB5962
BerguesFR 59380

BerguesFR 59380

Lat: 50.968, Lon: 2.440469

Elevation: 56

Station Type: Vantage Pro 2 Plus

Latest ConditionsUpdated 11:34:20 AM GMT+01:01 Monday, Aug 26, 2019
Currently Today's Max Today's Min Today's Average
Temperature 88.5°F31.4°C 88.5°F31.4°C 61.3°F16.3°C 68.6°F20.3°C
Dew Point 60.0°F15.6°C 65.0°F18.3°C 58.0°F14.4°C 60.2°F15.7°C
Winds 3.0 mph S4.8 kmh S 7.0 mph -11.3 kmh - - 0.7 mph 1.1 kmh
Wind Gusts 8.0 mph12.9 kmh 13.0 mph20.9 kmh - -
Humidity 38% 90% 38% 77%
Pressure 30.05 in1017.6 mb 30.08 in1018.6 mb 30.05 in1017.6 mb -
Hour Temp Dew Point Humidity Winds Wind Gusts Pressure Precip Precip Rate Daily Precip Total
11:34 AM 88.5°F31.4°C 60.0°F15.6°C 38% 3.0 mph S4.8 kmh S 8.0 mph12.9 kmh 30.05 in1017.6 mb 0.00 in0.0 mm 0.00 in0.0 mm 0.00 in0.0 mm
11:29 AM 88.0°F31.1°C 61.0°F16.1°C 41% 7.0 mph ESE11.3 kmh ESE 8.0 mph12.9 kmh 30.06 in1017.9 mb 0.00 in0.0 mm 0.00 in0.0 mm 0.00 in0.0 mm
11:24 AM 87.9°F31.1°C 59.0°F15.0°C 38% 2.0 mph SW3.2 kmh SW 7.0 mph11.3 kmh 30.06 in1017.9 mb 0.00 in0.0 mm 0.00 in0.0 mm 0.00 in0.0 mm
11:19 AM 87.9°F31.1°C 60.0°F15.6°C 39% 3.0 mph SSW4.8 kmh SSW 7.0 mph11.3 kmh 30.06 in1017.9 mb 0.00 in0.0 mm 0.00 in0.0 mm 0.00 in0.0 mm
11:14 AM 87.3°F30.7°C 61.0°F16.1°C 41% 4.0 mph E6.4 kmh E 7.0 mph11.3 kmh 30.06 in1017.9 mb 0.00 in0.0 mm 0.00 in0.0 mm 0.00 in0.0 mm
11:09 AM 87.1°F30.6°C 61.0°F16.1°C 41% 2.0 mph E3.2 kmh E 7.0 mph11.3 kmh 30.06 in1017.9 mb 0.00 in0.0 mm 0.00 in0.0 mm 0.00 in0.0 mm
11:04 AM 86.8°F30.4°C 60.0°F15.6°C 41% 2.0 mph E3.2 kmh E 7.0 mph11.3 kmh 30.06 in1017.9 mb 0.00 in0.0 mm 0.00 in0.0 mm 0.00 in0.0 mm
10:59 AM 87.0°F30.6°C 60.0°F15.6°C 40% 2.0 mph NE3.2 kmh NE 4.0 mph6.4 kmh 30.06 in1017.9 mb 0.00 in0.0 mm 0.00 in0.0 mm 0.00 in0.0 mm
10:54 AM 87.4°F30.8°C 62.0°F16.7°C 42% 1.0 mph NNE1.6 kmh NNE 4.0 mph6.4 kmh 30.06 in1017.9 mb 0.00 in0.0 mm 0.00 in0.0 mm 0.00 in0.0 mm
10:49 AM 87.0°F30.6°C 63.0°F17.2°C 45% 1.0 mph S1.6 kmh S 4.0 mph6.4 kmh 30.06 in1017.9 mb 0.00 in0.0 mm 0.00 in0.0 mm 0.00 in0.0 mm
10:44 AM 86.8°F30.4°C 64.0°F17.8°C 46% 2.0 mph E3.2 kmh E 4.0 mph6.4 kmh 30.06 in1017.9 mb 0.00 in0.0 mm 0.00 in0.0 mm 0.00 in0.0 mm
10:38 AM 86.7°F30.4°C 63.0°F17.2°C 45% 2.0 mph SSE3.2 kmh SSE 4.0 mph6.4 kmh 30.06 in1017.9 mb 0.00 in0.0 mm 0.00 in0.0 mm 0.00 in0.0 mm
10:34 AM 85.8°F29.9°C 64.0°F17.8°C 48% 1.0 mph SSE1.6 kmh SSE 4.0 mph6.4 kmh 30.07 in1018.3 mb 0.00 in0.0 mm 0.00 in0.0 mm 0.00 in0.0 mm
10:29 AM 85.0°F29.4°C 63.0°F17.2°C 47% Calm Calm 4.0 mph6.4 kmh 30.07 in1018.3 mb 0.00 in0.0 mm 0.00 in0.0 mm 0.00 in0.0 mm
10:24 AM 84.3°F29.1°C 62.0°F16.7°C 48% 1.0 mph E1.6 kmh E 4.0 mph6.4 kmh 30.07 in1018.3 mb 0.00 in0.0 mm 0.00 in0.0 mm 0.00 in0.0 mm
10:19 AM 83.8°F28.8°C 63.0°F17.2°C 49% Calm Calm 4.0 mph6.4 kmh 30.07 in1018.3 mb 0.00 in0.0 mm 0.00 in0.0 mm 0.00 in0.0 mm
10:15 AM 83.0°F28.3°C 64.0°F17.8°C 52% 2.0 mph E3.2 kmh E 4.0 mph6.4 kmh 30.07 in1018.3 mb 0.00 in0.0 mm 0.00 in0.0 mm 0.00 in0.0 mm
10:09 AM 82.9°F28.3°C 62.0°F16.7°C 49% 1.0 mph S1.6 kmh S 4.0 mph6.4 kmh 30.07 in1018.3 mb 0.00 in0.0 mm 0.00 in0.0 mm 0.00 in0.0 mm
10:04 AM 83.4°F28.6°C 63.0°F17.2°C 50% 1.0 mph SSE1.6 kmh SSE 4.0 mph6.4 kmh 30.07 in1018.3 mb 0.00 in0.0 mm 0.00 in0.0 mm 0.00 in0.0 mm
09:59 AM 83.0°F28.3°C 63.0°F17.2°C 51% 1.0 mph E1.6 kmh E 4.0 mph6.4 kmh 30.07 in1018.3 mb 0.00 in0.0 mm 0.00 in0.0 mm 0.00 in0.0 mm
09:55 AM 82.3°F27.9°C 63.0°F17.2°C 53% Calm Calm 4.0 mph6.4 kmh 30.07 in1018.3 mb 0.00 in0.0 mm 0.00 in0.0 mm 0.00 in0.0 mm
09:49 AM 82.0°F27.8°C 63.0°F17.2°C 53% 1.0 mph E1.6 kmh E 4.0 mph6.4 kmh 30.07 in1018.3 mb 0.00 in0.0 mm 0.00 in0.0 mm 0.00 in0.0 mm
09:44 AM 81.7°F27.6°C 64.0°F17.8°C 55% 1.0 mph E1.6 kmh E 4.0 mph6.4 kmh 30.07 in1018.3 mb 0.00 in0.0 mm 0.00 in0.0 mm 0.00 in0.0 mm
09:39 AM 81.2°F27.3°C 64.0°F17.8°C 56% Calm Calm 4.0 mph6.4 kmh 30.07 in1018.3 mb 0.00 in0.0 mm 0.00 in0.0 mm 0.00 in0.0 mm
09:34 AM 80.4°F26.9°C 65.0°F18.3°C 60% Calm Calm 4.0 mph6.4 kmh 30.07 in1018.3 mb 0.00 in0.0 mm 0.00 in0.0 mm 0.00 in0.0 mm
09:28 AM 78.9°F26.1°C 64.0°F17.8°C 60% 1.0 mph E1.6 kmh E 4.0 mph6.4 kmh 30.07 in1018.3 mb 0.00 in0.0 mm 0.00 in0.0 mm 0.00 in0.0 mm
09:24 AM 78.1°F25.6°C 64.0°F17.8°C 63% 1.0 mph S1.6 kmh S 4.0 mph6.4 kmh 30.07 in1018.3 mb 0.00 in0.0 mm 0.00 in0.0 mm 0.00 in0.0 mm
09:19 AM 77.1°F25.1°C 63.0°F17.2°C 63% 1.0 mph S1.6 kmh S 4.0 mph6.4 kmh 30.07 in1018.3 mb 0.00 in0.0 mm 0.00 in0.0 mm 0.00 in0.0 mm
09:14 AM 76.4°F24.7°C 63.0°F17.2°C 64% 1.0 mph S1.6 kmh S 4.0 mph6.4 kmh 30.07 in1018.3 mb 0.00 in0.0 mm 0.00 in0.0 mm 0.00 in0.0 mm
09:08 AM 75.7°F24.3°C 63.0°F17.2°C 65% 2.0 mph S3.2 kmh S 4.0 mph6.4 kmh 30.07 in1018.3 mb 0.00 in0.0 mm 0.00 in0.0 mm 0.00 in0.0 mm
09:04 AM 75.6°F24.2°C 64.0°F17.8°C 67% 1.0 mph S1.6 kmh S 4.0 mph6.4 kmh 30.06 in1017.9 mb 0.00 in0.0 mm 0.00 in0.0 mm 0.00 in0.0 mm
08:59 AM 75.4°F24.1°C 64.0°F17.8°C 67% Calm Calm 4.0 mph6.4 kmh 30.07 in1018.3 mb 0.00 in0.0 mm 0.00 in0.0 mm 0.00 in0.0 mm
08:54 AM 75.1°F23.9°C 65.0°F18.3°C 70% Calm Calm 4.0 mph6.4 kmh 30.07 in1018.3 mb 0.00 in0.0 mm 0.00 in0.0 mm 0.00 in0.0 mm
08:49 AM 74.4°F23.6°C 64.0°F17.8°C 71% 1.0 mph NE1.6 kmh NE 4.0 mph6.4 kmh 30.06 in1017.9 mb 0.00 in0.0 mm 0.00 in0.0 mm 0.00 in0.0 mm
08:44 AM 73.5°F23.1°C 64.0°F17.8°C 73% 1.0 mph NE1.6 kmh NE 4.0 mph6.4 kmh 30.06 in1017.9 mb 0.00 in0.0 mm 0.00 in0.0 mm 0.00 in0.0 mm
08:39 AM 72.9°F22.7°C 65.0°F18.3°C 75% 1.0 mph ENE1.6 kmh ENE 4.0 mph6.4 kmh 30.06 in1017.9 mb 0.00 in0.0 mm 0.00 in0.0 mm 0.00 in0.0 mm
08:34 AM 71.9°F22.2°C 65.0°F18.3°C 78% Calm Calm 4.0 mph6.4 kmh 30.06 in1017.9 mb 0.00 in0.0 mm 0.00 in0.0 mm 0.00 in0.0 mm
08:29 AM 70.8°F21.6°C 64.0°F17.8°C 79% Calm Calm 4.0 mph6.4 kmh 30.06 in1017.9 mb 0.00 in0.0 mm 0.00 in0.0 mm 0.00 in0.0 mm
08:23 AM 69.5°F20.8°C 63.0°F17.2°C 80% 2.0 mph E3.2 kmh E 4.0 mph6.4 kmh 30.06 in1017.9 mb 0.00 in0.0 mm 0.00 in0.0 mm 0.00 in0.0 mm
08:19 AM 68.6°F20.3°C 63.0°F17.2°C 81% 3.0 mph E4.8 kmh E 4.0 mph6.4 kmh 30.06 in1017.9 mb 0.00 in0.0 mm 0.00 in0.0 mm 0.00 in0.0 mm
08:14 AM 67.9°F19.9°C 62.0°F16.7°C 82% 1.0 mph E1.6 kmh E 4.0 mph6.4 kmh 30.06 in1017.9 mb 0.00 in0.0 mm 0.00 in0.0 mm 0.00 in0.0 mm
08:09 AM 67.4°F19.7°C 62.0°F16.7°C 83% 1.0 mph E1.6 kmh E 4.0 mph6.4 kmh 30.06 in1017.9 mb 0.00 in0.0 mm 0.00 in0.0 mm 0.00 in0.0 mm
08:04 AM 66.9°F19.4°C 62.0°F16.7°C 84% 2.0 mph E3.2 kmh E 4.0 mph6.4 kmh 30.06 in1017.9 mb 0.00 in0.0 mm 0.00 in0.0 mm 0.00 in0.0 mm
07:58 AM 66.3°F19.1°C 61.0°F16.1°C 84% 2.0 mph E3.2 kmh E 4.0 mph6.4 kmh 30.06 in1017.9 mb 0.00 in0.0 mm 0.00 in0.0 mm 0.00 in0.0 mm
07:54 AM 65.8°F18.8°C 61.0°F16.1°C 85% 2.0 mph E3.2 kmh E 4.0 mph6.4 kmh 30.06 in1017.9 mb 0.00 in0.0 mm 0.00 in0.0 mm 0.00 in0.0 mm
07:49 AM 65.3°F18.5°C 61.0°F16.1°C 85% 2.0 mph E3.2 kmh E 4.0 mph6.4 kmh 30.06 in1017.9 mb 0.00 in0.0 mm 0.00 in0.0 mm 0.00 in0.0 mm
07:44 AM 64.9°F18.3°C 61.0°F16.1°C 86% 1.0 mph E1.6 kmh E 4.0 mph6.4 kmh 30.06 in1017.9 mb 0.00 in0.0 mm 0.00 in0.0 mm 0.00 in0.0 mm
07:40 AM 64.4°F18.0°C 61.0°F16.1°C 87% 2.0 mph E3.2 kmh E 4.0 mph6.4 kmh 30.06 in1017.9 mb 0.00 in0.0 mm 0.00 in0.0 mm 0.00 in0.0 mm
07:34 AM 63.9°F17.7°C 60.0°F15.6°C 87% 1.0 mph E1.6 kmh E 4.0 mph6.4 kmh 30.06 in1017.9 mb 0.00 in0.0 mm 0.00 in0.0 mm 0.00 in0.0 mm
07:29 AM 63.6°F17.6°C 60.0°F15.6°C 88% 1.0 mph E1.6 kmh E 4.0 mph6.4 kmh 30.06 in1017.9 mb 0.00 in0.0 mm 0.00 in0.0 mm 0.00 in0.0 mm
07:24 AM 63.3°F17.4°C 60.0°F15.6°C 88% 1.0 mph E1.6 kmh E 4.0 mph6.4 kmh 30.06 in1017.9 mb 0.00 in0.0 mm 0.00 in0.0 mm 0.00 in0.0 mm
07:19 AM 63.1°F17.3°C 60.0°F15.6°C 88% 3.0 mph E4.8 kmh E 4.0 mph6.4 kmh 30.06 in1017.9 mb 0.00 in0.0 mm 0.00 in0.0 mm 0.00 in0.0 mm
07:13 AM 62.9°F17.2°C 60.0°F15.6°C 89% Calm Calm 3.0 mph4.8 kmh 30.05 in1017.6 mb 0.00 in0.0 mm 0.00 in0.0 mm 0.00 in0.0 mm
07:09 AM 62.7°F17.1°C 60.0°F15.6°C 89% Calm Calm 3.0 mph4.8 kmh 30.05 in1017.6 mb 0.00 in0.0 mm 0.00 in0.0 mm 0.00 in0.0 mm
07:04 AM 62.6°F17.0°C 59.0°F15.0°C 89% Calm Calm 3.0 mph4.8 kmh 30.05 in1017.6 mb 0.00 in0.0 mm 0.00 in0.0 mm 0.00 in0.0 mm
06:59 AM 62.5°F16.9°C 59.0°F15.0°C 89% Calm Calm 3.0 mph4.8 kmh 30.05 in1017.6 mb 0.00 in0.0 mm 0.00 in0.0 mm 0.00 in0.0 mm
06:53 AM 62.2°F16.8°C 59.0°F15.0°C 89% Calm Calm 3.0 mph4.8 kmh 30.06 in1017.9 mb 0.00 in0.0 mm 0.00 in0.0 mm 0.00 in0.0 mm
06:49 AM 62.1°F16.7°C 59.0°F15.0°C 89% 1.0 mph ESE1.6 kmh ESE 3.0 mph4.8 kmh 30.05 in1017.6 mb 0.00 in0.0 mm 0.00 in0.0 mm 0.00 in0.0 mm
06:44 AM 61.9°F16.6°C 59.0°F15.0°C 90% 1.0 mph ESE1.6 kmh ESE 3.0 mph4.8 kmh 30.06 in1017.9 mb 0.00 in0.0 mm 0.00 in0.0 mm 0.00 in0.0 mm
06:39 AM 61.7°F16.5°C 59.0°F15.0°C 89% Calm Calm 3.0 mph4.8 kmh 30.06 in1017.9 mb 0.00 in0.0 mm 0.00 in0.0 mm 0.00 in0.0 mm
06:35 AM 61.5°F16.4°C 58.0°F14.4°C 89% Calm Calm 3.0 mph4.8 kmh 30.05 in1017.6 mb 0.00 in0.0 mm 0.00 in0.0 mm 0.00 in0.0 mm
06:29 AM 61.3°F16.3°C 58.0°F14.4°C 89% Calm Calm 3.0 mph4.8 kmh 30.06 in1017.9 mb 0.00 in0.0 mm 0.00 in0.0 mm 0.00 in0.0 mm
06:24 AM 61.3°F16.3°C 58.0°F14.4°C 89% Calm Calm 3.0 mph4.8 kmh 30.05 in1017.6 mb 0.00 in0.0 mm 0.00 in0.0 mm 0.00 in0.0 mm
06:19 AM 61.4°F16.3°C 58.0°F14.4°C 89% Calm Calm 3.0 mph4.8 kmh 30.05 in1017.6 mb 0.00 in0.0 mm 0.00 in0.0 mm 0.00 in0.0 mm
06:14 AM 61.5°F16.4°C 58.0°F14.4°C 88% Calm Calm 3.0 mph4.8 kmh 30.05 in1017.6 mb 0.00 in0.0 mm 0.00 in0.0 mm 0.00 in0.0 mm
06:09 AM 61.6°F16.4°C 58.0°F14.4°C 88% Calm Calm 3.0 mph4.8 kmh 30.05 in1017.6 mb 0.00 in0.0 mm 0.00 in0.0 mm 0.00 in0.0 mm
06:04 AM 61.7°F16.5°C 58.0°F14.4°C 88% Calm Calm 3.0 mph4.8 kmh 30.05 in1017.6 mb 0.00 in0.0 mm 0.00 in0.0 mm 0.00 in0.0 mm
05:59 AM 61.9°F16.6°C 58.0°F14.4°C 88% Calm Calm 3.0 mph4.8 kmh 30.05 in1017.6 mb 0.00 in0.0 mm 0.00 in0.0 mm 0.00 in0.0 mm
05:54 AM 62.0°F16.7°C 59.0°F15.0°C 88% Calm Calm 3.0 mph4.8 kmh 30.05 in1017.6 mb 0.00 in0.0 mm 0.00 in0.0 mm 0.00 in0.0 mm
05:49 AM 62.1°F16.7°C 59.0°F15.0°C 88% Calm Calm 3.0 mph4.8 kmh 30.05 in1017.6 mb 0.00 in0.0 mm 0.00 in0.0 mm 0.00 in0.0 mm
05:44 AM 62.1°F16.7°C 59.0°F15.0°C 89% Calm Calm 3.0 mph4.8 kmh 30.05 in1017.6 mb 0.00 in0.0 mm 0.00 in0.0 mm 0.00 in0.0 mm
05:39 AM 62.1°F16.7°C 59.0°F15.0°C 89% Calm Calm 3.0 mph4.8 kmh 30.05 in1017.6 mb 0.00 in0.0 mm 0.00 in0.0 mm 0.00 in0.0 mm
05:35 AM 62.1°F16.7°C 59.0°F15.0°C 89% Calm Calm 3.0 mph4.8 kmh 30.05 in1017.6 mb 0.00 in0.0 mm 0.00 in0.0 mm 0.00 in0.0 mm
05:28 AM 62.0°F16.7°C 59.0°F15.0°C 89% Calm Calm 3.0 mph4.8 kmh 30.05 in1017.6 mb 0.00 in0.0 mm 0.00 in0.0 mm 0.00 in0.0 mm
05:24 AM 61.8°F16.6°C 59.0°F15.0°C 89% Calm Calm 3.0 mph4.8 kmh 30.05 in1017.6 mb 0.00 in0.0 mm 0.00 in0.0 mm 0.00 in0.0 mm
05:19 AM 61.7°F16.5°C 59.0°F15.0°C 89% Calm Calm 3.0 mph4.8 kmh 30.05 in1017.6 mb 0.00 in0.0 mm 0.00 in0.0 mm 0.00 in0.0 mm
05:13 AM 61.7°F16.5°C 59.0°F15.0°C 89% Calm Calm 3.0 mph4.8 kmh 30.05 in1017.6 mb 0.00 in0.0 mm 0.00 in0.0 mm 0.00 in0.0 mm
05:09 AM 61.7°F16.5°C 59.0°F15.0°C 89% Calm Calm 3.0 mph4.8 kmh 30.05 in1017.6 mb 0.00 in0.0 mm 0.00 in0.0 mm 0.00 in0.0 mm
05:04 AM 61.6°F16.4°C 58.0°F14.4°C 89% Calm Calm 3.0 mph4.8 kmh 30.05 in1017.6 mb 0.00 in0.0 mm 0.00 in0.0 mm 0.00 in0.0 mm
04:59 AM 61.5°F16.4°C 58.0°F14.4°C 89% Calm Calm 3.0 mph4.8 kmh 30.05 in1017.6 mb 0.00 in0.0 mm 0.00 in0.0 mm 0.00 in0.0 mm
04:54 AM 61.5°F16.4°C 58.0°F14.4°C 88% Calm Calm 3.0 mph4.8 kmh 30.05 in1017.6 mb 0.00 in0.0 mm 0.00 in0.0 mm 0.00 in0.0 mm
04:48 AM 61.7°F16.5°C 58.0°F14.4°C 88% Calm Calm 3.0 mph4.8 kmh 30.05 in1017.6 mb 0.00 in0.0 mm 0.00 in0.0 mm 0.00 in0.0 mm
04:44 AM 61.8°F16.6°C 58.0°F14.4°C 88% Calm Calm 3.0 mph4.8 kmh 30.05 in1017.6 mb 0.00 in0.0 mm 0.00 in0.0 mm 0.00 in0.0 mm
04:39 AM 61.8°F16.6°C 59.0°F15.0°C 89% Calm Calm 3.0 mph4.8 kmh 30.05 in1017.6 mb 0.00 in0.0 mm 0.00 in0.0 mm 0.00 in0.0 mm
04:34 AM 61.6°F16.4°C 58.0°F14.4°C 88% Calm Calm 3.0 mph4.8 kmh 30.05 in1017.6 mb 0.00 in0.0 mm 0.00 in0.0 mm 0.00 in0.0 mm
04:28 AM 61.4°F16.3°C 58.0°F14.4°C 88% Calm Calm 3.0 mph4.8 kmh 30.05 in1017.6 mb 0.00 in0.0 mm 0.00 in0.0 mm 0.00 in0.0 mm
04:24 AM 61.3°F16.3°C 58.0°F14.4°C 88% Calm Calm 3.0 mph4.8 kmh 30.05 in1017.6 mb 0.00 in0.0 mm 0.00 in0.0 mm 0.00 in0.0 mm
04:19 AM 61.4°F16.3°C 58.0°F14.4°C 88% Calm Calm 3.0 mph4.8 kmh 30.06 in1017.9 mb 0.00 in0.0 mm 0.00 in0.0 mm 0.00 in0.0 mm
04:14 AM 61.5°F16.4°C 58.0°F14.4°C 87% Calm Calm 3.0 mph4.8 kmh 30.06 in1017.9 mb 0.00 in0.0 mm 0.00 in0.0 mm 0.00 in0.0 mm
04:09 AM 61.6°F16.4°C 58.0°F14.4°C 87% Calm Calm 3.0 mph4.8 kmh 30.05 in1017.6 mb 0.00 in0.0 mm 0.00 in0.0 mm 0.00 in0.0 mm
04:04 AM 61.7°F16.5°C 58.0°F14.4°C 87% Calm Calm 3.0 mph4.8 kmh 30.05 in1017.6 mb 0.00 in0.0 mm 0.00 in0.0 mm 0.00 in0.0 mm
03:59 AM 61.9°F16.6°C 58.0°F14.4°C 87% Calm Calm 3.0 mph4.8 kmh 30.05 in1017.6 mb 0.00 in0.0 mm 0.00 in0.0 mm 0.00 in0.0 mm
03:54 AM 62.1°F16.7°C 58.0°F14.4°C 87% Calm Calm 3.0 mph4.8 kmh 30.06 in1017.9 mb 0.00 in0.0 mm 0.00 in0.0 mm 0.00 in0.0 mm
03:49 AM 62.3°F16.8°C 58.0°F14.4°C 86% 1.0 mph NE1.6 kmh NE 3.0 mph4.8 kmh 30.06 in1017.9 mb 0.00 in0.0 mm 0.00 in0.0 mm 0.00 in0.0 mm
03:44 AM 62.6°F17.0°C 58.0°F14.4°C 86% Calm Calm 3.0 mph4.8 kmh 30.06 in1017.9 mb 0.00 in0.0 mm 0.00 in0.0 mm 0.00 in0.0 mm
03:39 AM 62.7°F17.1°C 59.0°F15.0°C 86% Calm Calm 3.0 mph4.8 kmh 30.06 in1017.9 mb 0.00 in0.0 mm 0.00 in0.0 mm 0.00 in0.0 mm
03:34 AM 62.9°F17.2°C 59.0°F15.0°C 86% 1.0 mph NE1.6 kmh NE 3.0 mph4.8 kmh 30.06 in1017.9 mb 0.00 in0.0 mm 0.00 in0.0 mm 0.00 in0.0 mm
03:29 AM 63.0°F17.2°C 59.0°F15.0°C 86% Calm Calm 3.0 mph4.8 kmh 30.06 in1017.9 mb 0.00 in0.0 mm 0.00 in0.0 mm 0.00 in0.0 mm
03:23 AM 63.1°F17.3°C 59.0°F15.0°C 86% Calm Calm 3.0 mph4.8 kmh 30.06 in1017.9 mb 0.00 in0.0 mm 0.00 in0.0 mm 0.00 in0.0 mm
03:19 AM 63.1°F17.3°C 59.0°F15.0°C 85% Calm Calm 3.0 mph4.8 kmh 30.06 in1017.9 mb 0.00 in0.0 mm 0.00 in0.0 mm 0.00 in0.0 mm
03:14 AM 63.2°F17.3°C 59.0°F15.0°C 85% Calm Calm 3.0 mph4.8 kmh 30.06 in1017.9 mb 0.00 in0.0 mm 0.00 in0.0 mm 0.00 in0.0 mm
03:09 AM 63.3°F17.4°C 59.0°F15.0°C 85% Calm Calm 3.0 mph4.8 kmh 30.06 in1017.9 mb 0.00 in0.0 mm 0.00 in0.0 mm 0.00 in0.0 mm
03:05 AM 63.2°F17.3°C 59.0°F15.0°C 85% Calm Calm 3.0 mph4.8 kmh 30.06 in1017.9 mb 0.00 in0.0 mm 0.00 in0.0 mm 0.00 in0.0 mm
02:59 AM 63.2°F17.3°C 59.0°F15.0°C 85% Calm Calm 3.0 mph4.8 kmh 30.06 in1017.9 mb 0.00 in0.0 mm 0.00 in0.0 mm 0.00 in0.0 mm
02:54 AM 63.2°F17.3°C 58.0°F14.4°C 84% Calm Calm 3.0 mph4.8 kmh 30.06 in1017.9 mb 0.00 in0.0 mm 0.00 in0.0 mm 0.00 in0.0 mm
02:49 AM 63.3°F17.4°C 58.0°F14.4°C 84% Calm Calm 3.0 mph4.8 kmh 30.05 in1017.6 mb 0.00 in0.0 mm 0.00 in0.0 mm 0.00 in0.0 mm
02:45 AM 63.3°F17.4°C 58.0°F14.4°C 83% Calm Calm 3.0 mph4.8 kmh 30.05 in1017.6 mb 0.00 in0.0 mm 0.00 in0.0 mm 0.00 in0.0 mm
02:38 AM 63.6°F17.6°C 58.0°F14.4°C 83% Calm Calm 3.0 mph4.8 kmh 30.06 in1017.9 mb 0.00 in0.0 mm 0.00 in0.0 mm 0.00 in0.0 mm
02:34 AM 63.8°F17.7°C 58.0°F14.4°C 82% Calm Calm 3.0 mph4.8 kmh 30.06 in1017.9 mb 0.00 in0.0 mm 0.00 in0.0 mm 0.00 in0.0 mm
02:29 AM 64.1°F17.8°C 59.0°F15.0°C 82% Calm Calm 3.0 mph4.8 kmh 30.06 in1017.9 mb 0.00 in0.0 mm 0.00 in0.0 mm 0.00 in0.0 mm
02:24 AM 64.4°F18.0°C 59.0°F15.0°C 82% Calm Calm 3.0 mph4.8 kmh 30.06 in1017.9 mb 0.00 in0.0 mm 0.00 in0.0 mm 0.00 in0.0 mm
02:19 AM 64.7°F18.2°C 59.0°F15.0°C 81% Calm Calm 3.0 mph4.8 kmh 30.06 in1017.9 mb 0.00 in0.0 mm 0.00 in0.0 mm 0.00 in0.0 mm
02:13 AM 65.1°F18.4°C 59.0°F15.0°C 81% Calm Calm 3.0 mph4.8 kmh 30.06 in1017.9 mb 0.00 in0.0 mm 0.00 in0.0 mm 0.00 in0.0 mm
02:09 AM 65.4°F18.6°C 59.0°F15.0°C 81% Calm Calm 3.0 mph4.8 kmh 30.06 in1017.9 mb 0.00 in0.0 mm 0.00 in0.0 mm 0.00 in0.0 mm
02:04 AM 65.7°F18.7°C 59.0°F15.0°C 80% Calm Calm 3.0 mph4.8 kmh 30.07 in1018.3 mb 0.00 in0.0 mm 0.00 in0.0 mm 0.00 in0.0 mm
01:59 AM 65.9°F18.8°C 60.0°F15.6°C 80% Calm Calm 3.0 mph4.8 kmh 30.07 in1018.3 mb 0.00 in0.0 mm 0.00 in0.0 mm 0.00 in0.0 mm
01:54 AM 66.0°F18.9°C 60.0°F15.6°C 80% Calm Calm 3.0 mph4.8 kmh 30.07 in1018.3 mb 0.00 in0.0 mm 0.00 in0.0 mm 0.00 in0.0 mm
01:49 AM 65.9°F18.8°C 60.0°F15.6°C 81% 1.0 mph NE1.6 kmh NE 3.0 mph4.8 kmh 30.07 in1018.3 mb 0.00 in0.0 mm 0.00 in0.0 mm 0.00 in0.0 mm
01:44 AM 65.9°F18.8°C 60.0°F15.6°C 81% 1.0 mph NE1.6 kmh NE 3.0 mph4.8 kmh 30.07 in1018.3 mb 0.00 in0.0 mm 0.00 in0.0 mm 0.00 in0.0 mm
01:39 AM 65.7°F18.7°C 60.0°F15.6°C 82% 3.0 mph NE4.8 kmh NE 3.0 mph4.8 kmh 30.07 in1018.3 mb 0.00 in0.0 mm 0.00 in0.0 mm 0.00 in0.0 mm
01:34 AM 65.4°F18.6°C 60.0°F15.6°C 82% 1.0 mph SW1.6 kmh SW 2.0 mph3.2 kmh 30.07 in1018.3 mb 0.00 in0.0 mm 0.00 in0.0 mm 0.00 in0.0 mm
01:29 AM 65.0°F18.3°C 60.0°F15.6°C 83% 2.0 mph SW3.2 kmh SW 2.0 mph3.2 kmh 30.07 in1018.3 mb 0.00 in0.0 mm 0.00 in0.0 mm 0.00 in0.0 mm
01:24 AM 64.8°F18.2°C 59.0°F15.0°C 82% 1.0 mph SW1.6 kmh SW 2.0 mph3.2 kmh 30.07 in1018.3 mb 0.00 in0.0 mm 0.00 in0.0 mm 0.00 in0.0 mm
01:19 AM 64.7°F18.2°C 59.0°F15.0°C 82% Calm Calm 2.0 mph3.2 kmh 30.07 in1018.3 mb 0.00 in0.0 mm 0.00 in0.0 mm 0.00 in0.0 mm
01:14 AM 64.8°F18.2°C 59.0°F15.0°C 82% Calm Calm 2.0 mph3.2 kmh 30.07 in1018.3 mb 0.00 in0.0 mm 0.00 in0.0 mm 0.00 in0.0 mm
01:09 AM 64.9°F18.3°C 59.0°F15.0°C 81% 1.0 mph SW1.6 kmh SW 2.0 mph3.2 kmh 30.07 in1018.3 mb 0.00 in0.0 mm 0.00 in0.0 mm 0.00 in0.0 mm
01:04 AM 65.2°F18.4°C 59.0°F15.0°C 81% Calm Calm -- 30.08 in1018.6 mb 0.00 in0.0 mm 0.00 in0.0 mm 0.00 in0.0 mm
12:59 AM 65.4°F18.6°C 59.0°F15.0°C 81% Calm Calm 13.0 mph20.9 kmh 30.08 in1018.6 mb 0.00 in0.0 mm 0.00 in0.0 mm 0.00 in0.0 mm
12:54 AM 65.6°F18.7°C 59.0°F15.0°C 80% 1.0 mph SW1.6 kmh SW 13.0 mph20.9 kmh 30.08 in1018.6 mb 0.00 in0.0 mm 0.00 in0.0 mm 0.00 in0.0 mm
12:49 AM 65.8°F18.8°C 60.0°F15.6°C 80% 2.0 mph SW3.2 kmh SW 13.0 mph20.9 kmh 30.08 in1018.6 mb 0.00 in0.0 mm 0.00 in0.0 mm 0.00 in0.0 mm
12:44 AM 65.9°F18.8°C 59.0°F15.0°C 79% Calm Calm 13.0 mph20.9 kmh 30.08 in1018.6 mb 0.00 in0.0 mm 0.00 in0.0 mm 0.00 in0.0 mm
12:39 AM 66.1°F18.9°C 59.0°F15.0°C 79% Calm Calm 13.0 mph20.9 kmh 30.08 in1018.6 mb 0.00 in0.0 mm 0.00 in0.0 mm 0.00 in0.0 mm
12:34 AM 66.2°F19.0°C 60.0°F15.6°C 79% Calm Calm 13.0 mph20.9 kmh 30.08 in1018.6 mb 0.00 in0.0 mm 0.00 in0.0 mm 0.00 in0.0 mm
12:28 AM 66.4°F19.1°C 60.0°F15.6°C 79% 1.0 mph N1.6 kmh N 13.0 mph20.9 kmh 30.08 in1018.6 mb 0.00 in0.0 mm 0.00 in0.0 mm 0.00 in0.0 mm
12:23 AM 66.4°F19.1°C 60.0°F15.6°C 79% 2.0 mph NNE3.2 kmh NNE 13.0 mph20.9 kmh 30.08 in1018.6 mb 0.00 in0.0 mm 0.00 in0.0 mm 0.00 in0.0 mm
12:19 AM 66.3°F19.1°C 59.0°F15.0°C 78% 1.0 mph NNE1.6 kmh NNE 13.0 mph20.9 kmh 30.08 in1018.6 mb 0.00 in0.0 mm 0.00 in0.0 mm 0.00 in0.0 mm
12:14 AM 66.4°F19.1°C 59.0°F15.0°C 78% 1.0 mph NNE1.6 kmh NNE 13.0 mph20.9 kmh 30.08 in1018.6 mb 0.00 in0.0 mm 0.00 in0.0 mm 0.00 in0.0 mm
12:09 AM 66.4°F19.1°C 59.0°F15.0°C 77% 1.0 mph NNE1.6 kmh NNE 13.0 mph20.9 kmh 30.08 in1018.6 mb 0.00 in0.0 mm 0.00 in0.0 mm 0.00 in0.0 mm
12:03 AM 66.6°F19.2°C 59.0°F15.0°C 77% 1.0 mph N1.6 kmh N 13.0 mph20.9 kmh 30.08 in1018.6 mb 0.00 in0.0 mm 0.00 in0.0 mm 0.00 in0.0 mm